Time;durP1;ratioP1;P1;durP2;ratioP2;P2;SDS_P1;SDS_P2;PMS_P1;PMS_P2;Temp;Humidity;BMP_temperature;BMP_pressure;BME280_temperature;BME280_humidity;BME280_pressure;Samples;Min_cycle;Max_cycle;Signal;HPM_P1;HPM_P2
2021/10/07 00:00:13;;;;;;;7.22;3.90;;;;;;;7.77;53.84;102231.34;5037355;28;20032;-66
2021/10/07 00:02:40;;;;;;;7.30;3.80;;;;;;;7.74;53.96;102227.88;5031625;28;20550;-69
2021/10/07 00:05:07;;;;;;;6.97;3.45;;;;;;;7.72;54.00;102226.16;5031409;28;20098;-69
2021/10/07 00:07:32;;;;;;;7.00;3.58;;;;;;;7.67;53.70;102233.13;5044271;28;20041;-70
2021/10/07 00:09:58;;;;;;;9.52;4.53;;;;;;;7.67;53.88;102236.59;5036011;28;20040;-70
2021/10/07 00:12:23;;;;;;;9.40;5.00;;;;;;;7.62;54.28;102245.28;5034437;28;20596;-73
2021/10/07 00:14:49;;;;;;;9.07;4.53;;;;;;;7.61;54.21;102253.97;5029300;28;20041;-73
2021/10/07 00:17:14;;;;;;;6.80;3.33;;;;;;;7.58;54.03;102254.88;5032067;28;20052;-73
2021/10/07 00:19:40;;;;;;;10.23;3.75;;;;;;;7.51;54.24;102251.41;5029020;28;20048;-73
2021/10/07 00:22:05;;;;;;;6.15;3.50;;;;;;;7.36;54.04;102253.22;5034845;28;20040;-73
2021/10/07 00:24:31;;;;;;;4.53;3.00;;;;;;;7.35;54.03;102259.28;5032781;28;20073;-74
2021/10/07 00:26:57;;;;;;;5.03;2.95;;;;;;;7.18;54.11;102265.41;5031045;28;20045;-73
2021/10/07 00:32:15;;;;;;;5.27;3.43;;;;;;;6.99;54.83;102285.38;5036476;28;20048;-72
2021/10/07 00:40:04;;;;;;;6.65;4.03;;;;;;;7.31;54.58;102294.81;5045733;28;20103;-71
2021/10/07 00:42:30;;;;;;;5.63;2.63;;;;;;;7.36;54.58;102295.69;5030954;28;20120;-72
2021/10/07 00:44:55;;;;;;;7.07;3.67;;;;;;;7.45;54.71;102300.00;5031938;28;20512;-71
2021/10/07 00:47:21;;;;;;;6.13;2.90;;;;;;;7.50;54.53;102298.22;5032942;28;20025;-72
2021/10/07 00:49:46;;;;;;;4.68;2.92;;;;;;;7.52;54.62;102297.34;5030531;28;20037;-72
2021/10/07 00:52:19;;;;;;;5.88;3.50;;;;;;;7.57;54.12;102305.16;5039067;28;20036;-70
2021/10/07 00:54:47;;;;;;;5.25;2.67;;;;;;;7.65;54.37;102303.41;5029567;28;20069;-69
2021/10/07 00:57:17;;;;;;;6.45;3.38;;;;;;;7.80;54.32;102301.56;5029041;28;20433;-69
2021/10/07 00:59:47;;;;;;;7.13;3.05;;;;;;;7.99;54.21;102313.63;5026818;28;20041;-69
2021/10/07 01:02:12;;;;;;;5.53;3.00;;;;;;;8.08;54.12;102305.75;5027770;28;20040;-69
2021/10/07 01:04:38;;;;;;;5.50;2.95;;;;;;;8.18;54.11;102303.06;5030161;28;20045;-70
2021/10/07 01:07:05;;;;;;;5.10;2.70;;;;;;;8.26;54.06;102306.50;5037523;28;20127;-71
2021/10/07 01:09:31;;;;;;;7.97;3.22;;;;;;;8.37;53.79;102307.28;5037908;28;20038;-71
2021/10/07 01:11:58;;;;;;;6.97;3.33;;;;;;;8.44;53.60;102308.94;5036747;28;20536;-68
2021/10/07 01:14:51;;;;;;;13.18;3.75;;;;;;;8.41;53.97;102313.34;5032802;28;20043;-69
2021/10/07 01:17:19;;;;;;;7.20;3.33;;;;;;;8.42;53.88;102318.53;5046956;28;20083;-69
2021/10/07 01:19:49;;;;;;;7.43;3.90;;;;;;;8.42;53.77;102322.88;5036516;28;20049;-74
2021/10/07 01:22:16;;;;;;;7.00;3.20;;;;;;;8.48;53.63;102321.09;5034258;28;20403;-68
2021/10/07 01:24:42;;;;;;;8.38;4.18;;;;;;;8.42;53.62;102322.88;5037837;28;20041;-69
2021/10/07 01:27:10;;;;;;;10.88;4.78;;;;;;;8.27;53.66;102322.13;5022245;28;20459;-68
2021/10/07 01:29:37;;;;;;;9.52;4.63;;;;;;;8.26;53.82;102319.53;5030550;28;20061;-69
2021/10/07 01:32:04;;;;;;;12.70;4.80;;;;;;;8.08;54.31;102312.69;5032457;28;20037;-69
2021/10/07 01:34:30;;;;;;;9.30;3.67;;;;;;;8.01;53.65;102316.22;5032172;28;20494;-68
2021/10/07 01:36:57;;;;;;;10.38;4.25;;;;;;;7.92;54.16;102322.34;5034181;28;20041;-69
2021/10/07 01:39:23;;;;;;;12.20;4.72;;;;;;;7.81;53.92;102317.19;5034306;28;20043;-69
2021/10/07 01:41:49;;;;;;;10.95;4.68;;;;;;;7.82;54.27;102318.06;5035799;28;20045;-69
2021/10/07 01:44:17;;;;;;;9.73;4.97;;;;;;;7.79;54.21;102315.47;5032858;28;20037;-70
2021/10/07 01:46:43;;;;;;;10.18;3.72;;;;;;;7.70;54.16;102322.44;5033514;28;20045;-69
2021/10/07 01:49:08;;;;;;;9.98;4.40;;;;;;;7.63;54.02;102325.97;5059199;28;20100;-70
2021/10/07 01:51:35;;;;;;;11.20;5.18;;;;;;;7.63;54.31;102325.09;5045170;28;20045;-71
2021/10/07 01:54:02;;;;;;;11.23;5.63;;;;;;;7.57;54.14;102325.13;5051477;28;20045;-69
2021/10/07 01:56:30;;;;;;;13.98;5.55;;;;;;;7.48;54.31;102326.84;5042896;28;20044;-70
2021/10/07 01:58:57;;;;;;;15.93;6.03;;;;;;;7.44;54.65;102334.66;5043042;28;20098;-70
2021/10/07 02:01:23;;;;;;;12.18;5.47;;;;;;;7.29;54.65;102339.06;5045312;28;20034;-70
2021/10/07 02:03:48;;;;;;;14.38;6.10;;;;;;;7.20;54.67;102341.69;5031270;28;20037;-70
2021/10/07 02:06:14;;;;;;;12.40;5.97;;;;;;;7.16;54.74;102347.75;5033734;28;20474;-70
2021/10/07 02:08:40;;;;;;;12.48;4.88;;;;;;;7.20;54.72;102354.69;5034835;28;20036;-74
2021/10/07 02:11:06;;;;;;;16.10;6.05;;;;;;;7.32;54.58;102349.44;5029998;28;20190;-74
2021/10/07 02:13:31;;;;;;;13.52;6.38;;;;;;;7.24;54.17;102358.13;5037531;28;20037;-69
2021/10/07 02:15:58;;;;;;;9.75;5.22;;;;;;;7.19;54.26;102368.53;5033975;28;20626;-69
2021/10/07 02:18:24;;;;;;;11.63;3.85;;;;;;;7.21;54.49;102364.22;5018148;28;20358;-70
2021/10/07 02:20:49;;;;;;;9.50;4.63;;;;;;;7.17;54.73;102367.69;5031035;28;20196;-69
2021/10/07 02:23:15;;;;;;;12.02;5.78;;;;;;;7.17;54.83;102367.69;5040369;28;20037;-66
2021/10/07 02:25:41;;;;;;;10.95;5.32;;;;;;;7.16;54.55;102368.56;5040040;28;20040;-66
2021/10/07 02:28:06;;;;;;;15.40;5.65;;;;;;;7.29;54.27;102370.28;5034073;28;20035;-70
2021/10/07 02:30:32;;;;;;;12.40;6.22;;;;;;;7.23;54.59;102372.88;5031119;28;20076;-68
2021/10/07 02:32:57;;;;;;;13.48;5.95;;;;;;;7.14;54.56;102378.09;5027627;28;20041;-68
2021/10/07 02:35:23;;;;;;;12.07;5.43;;;;;;;7.13;54.39;102376.34;5030012;28;20052;-69
2021/10/07 02:37:49;;;;;;;16.00;6.38;;;;;;;7.20;54.35;102385.91;5034472;28;20524;-69
2021/10/07 02:40:15;;;;;;;14.88;6.90;;;;;;;7.12;54.13;102380.69;5036115;28;20061;-67
2021/10/07 02:42:41;;;;;;;12.60;4.85;;;;;;;7.12;54.34;102382.44;5032299;28;20123;-69
2021/10/07 02:45:09;;;;;;;12.55;6.10;;;;;;;7.00;54.45;102390.22;5040722;28;20105;-68
2021/10/07 02:47:36;;;;;;;11.68;5.25;;;;;;;7.07;54.22;102390.25;5043816;28;20041;-68
2021/10/07 02:50:04;;;;;;;14.88;6.70;;;;;;;7.11;54.17;102391.13;5028416;28;20040;-69
2021/10/07 02:52:29;;;;;;;11.15;5.20;;;;;;;7.07;53.99;102407.59;5047767;28;20537;-67
2021/10/07 02:54:57;;;;;;;9.18;4.68;;;;;;;6.99;54.06;102409.31;5036219;28;20037;-68
2021/10/07 02:57:25;;;;;;;9.57;4.45;;;;;;;6.90;53.97;102415.38;5031069;28;20068;-66
2021/10/07 02:59:50;;;;;;;7.55;3.90;;;;;;;6.75;54.10;102416.22;5028408;28;20057;-67
2021/10/07 03:02:16;;;;;;;11.82;4.85;;;;;;;6.65;54.41;102410.16;5030994;28;20461;-67
2021/10/07 03:04:43;;;;;;;8.95;3.97;;;;;;;6.77;54.61;102418.84;5028698;28;20042;-69
2021/10/07 03:07:11;;;;;;;8.02;3.70;;;;;;;6.74;54.57;102419.69;5027918;28;20043;-67
2021/10/07 03:09:38;;;;;;;9.80;4.68;;;;;;;6.81;54.18;102426.63;5032076;28;20548;-67
2021/10/07 03:12:04;;;;;;;7.07;3.85;;;;;;;6.93;53.87;102425.75;5031581;28;20045;-67
2021/10/07 03:14:30;;;;;;;6.88;3.55;;;;;;;6.87;54.00;102436.19;5027860;28;20067;-66
2021/10/07 03:16:55;;;;;;;4.65;3.03;;;;;;;6.85;54.13;102436.16;5035109;28;20637;-67
2021/10/07 03:19:21;;;;;;;5.57;2.60;;;;;;;6.69;53.71;102439.63;5031303;28;20150;-70
2021/10/07 03:21:46;;;;;;;5.15;2.85;;;;;;;6.57;54.02;102447.38;5047434;28;20882;-67
2021/10/07 03:24:12;;;;;;;6.22;2.70;;;;;;;6.52;54.44;102443.91;5031818;28;20079;-67
2021/10/07 03:26:37;;;;;;;6.88;3.80;;;;;;;6.50;54.28;102451.69;5029476;28;20052;-67
2021/10/07 03:29:03;;;;;;;8.88;3.97;;;;;;;6.49;54.33;102458.63;5030696;28;20064;-69
2021/10/07 03:31:28;;;;;;;5.57;3.38;;;;;;;6.44;54.35;102452.56;5032958;28;20037;-67
2021/10/07 03:33:54;;;;;;;6.20;2.72;;;;;;;6.40;54.49;102460.34;5030672;28;20064;-68
2021/10/07 03:36:19;;;;;;;5.07;2.67;;;;;;;6.45;54.81;102471.63;5029415;28;20044;-67
2021/10/07 03:38:45;;;;;;;8.40;4.00;;;;;;;6.68;54.40;102469.06;5022307;28;20632;-67
2021/10/07 03:41:10;;;;;;;6.15;3.40;;;;;;;6.60;54.20;102473.41;5030665;28;20063;-69
2021/10/07 03:43:35;;;;;;;6.50;3.30;;;;;;;6.51;54.36;102471.63;5031234;28;20526;-67
2021/10/07 03:46:01;;;;;;;6.65;3.35;;;;;;;6.44;54.43;102469.88;5031114;28;20059;-69
2021/10/07 03:48:27;;;;;;;6.07;2.55;;;;;;;6.41;54.17;102478.50;5033626;28;20045;-70
2021/10/07 03:50:53;;;;;;;2.88;1.98;;;;;;;6.32;54.77;102477.63;5029283;28;20540;-72
2021/10/07 03:53:18;;;;;;;4.22;2.60;;;;;;;6.35;54.57;102482.81;5028802;28;20025;-69
2021/10/07 03:55:44;;;;;;;5.78;2.67;;;;;;;6.26;54.36;102481.03;5032732;28;20041;-72
2021/10/07 03:58:09;;;;;;;4.25;2.30;;;;;;;6.19;54.53;102487.91;5032007;28;20103;-72
2021/10/07 04:00:34;;;;;;;6.15;2.40;;;;;;;6.11;54.57;102491.38;5035329;28;20119;-72
2021/10/07 04:03:03;;;;;;;6.25;2.60;;;;;;;6.01;54.98;102493.03;5031007;28;20030;-74
2021/10/07 04:05:31;;;;;;;6.00;3.80;;;;;;;5.99;55.03;102489.56;5029656;28;20057;-73
2021/10/07 04:07:56;;;;;;;5.55;3.25;;;;;;;5.95;54.92;102499.09;5031700;28;20144;-68
2021/10/07 04:10:22;;;;;;;8.32;3.22;;;;;;;5.88;54.88;102499.88;5028400;28;20049;-66
2021/10/07 04:12:47;;;;;;;7.65;3.60;;;;;;;5.84;55.13;102498.16;5032712;28;20472;-67
2021/10/07 04:15:14;;;;;;;6.78;3.17;;;;;;;5.78;55.11;102500.72;5032771;28;20045;-67
2021/10/07 04:17:39;;;;;;;5.07;2.78;;;;;;;5.78;54.99;102505.91;5031065;28;20111;-67
2021/10/07 04:20:08;;;;;;;8.55;3.35;;;;;;;5.79;55.15;102507.63;5033126;28;20505;-68
2021/10/07 04:22:33;;;;;;;6.15;3.15;;;;;;;5.78;54.91;102524.06;5029435;28;20110;-68
2021/10/07 04:24:59;;;;;;;10.20;3.17;;;;;;;5.70;54.86;102528.31;5028669;28;20052;-71
2021/10/07 04:27:24;;;;;;;6.20;3.08;;;;;;;5.69;55.27;102531.78;5032769;28;20021;-70
2021/10/07 04:29:50;;;;;;;6.80;3.10;;;;;;;5.55;55.23;102531.69;5029442;28;20045;-71
2021/10/07 04:32:15;;;;;;;6.70;2.90;;;;;;;5.95;54.92;102525.03;5031554;28;20033;-71
2021/10/07 04:34:41;;;;;;;8.48;3.17;;;;;;;5.99;54.44;102526.75;5029084;28;20152;-69
2021/10/07 04:37:07;;;;;;;6.80;3.42;;;;;;;5.85;54.58;102538.81;5034513;28;20040;-69
2021/10/07 04:39:32;;;;;;;5.10;2.50;;;;;;;5.89;54.86;102540.56;5034558;28;20045;-69
2021/10/07 04:41:58;;;;;;;6.60;2.80;;;;;;;5.82;54.75;102544.84;5036088;28;20133;-68
2021/10/07 04:44:23;;;;;;;4.32;2.33;;;;;;;5.90;54.56;102552.66;5034429;28;20706;-69
2021/10/07 04:46:49;;;;;;;6.25;3.08;;;;;;;6.05;54.96;102549.31;5032867;28;20695;-69
2021/10/07 04:49:14;;;;;;;4.70;2.60;;;;;;;6.12;54.88;102553.66;5033752;28;20036;-69
2021/10/07 04:51:40;;;;;;;4.25;2.17;;;;;;;6.29;54.78;102561.59;5033913;28;20042;-68
2021/10/07 04:54:05;;;;;;;6.07;2.75;;;;;;;6.28;54.10;102571.13;5032614;28;20124;-69
2021/10/07 04:56:31;;;;;;;5.68;2.90;;;;;;;6.27;54.19;102563.28;5033283;28;20115;-71
2021/10/07 04:58:56;;;;;;;4.68;2.13;;;;;;;6.62;53.96;102573.84;5030854;28;20029;-71
2021/10/07 05:01:24;;;;;;;12.60;3.33;;;;;;;6.74;53.86;102575.63;5030383;28;20041;-67
2021/10/07 05:03:50;;;;;;;5.00;2.50;;;;;;;6.84;53.38;102571.31;5034627;28;20037;-68
2021/10/07 05:06:16;;;;;;;6.00;2.92;;;;;;;6.90;53.64;102579.13;5033480;28;20413;-67
2021/10/07 05:08:42;;;;;;;5.68;2.92;;;;;;;6.74;53.32;102575.63;5032241;28;20037;-66
2021/10/07 05:11:08;;;;;;;10.25;3.30;;;;;;;6.76;53.45;102579.09;5034030;28;20047;-69
2021/10/07 05:13:33;;;;;;;9.10;3.25;;;;;;;6.81;53.79;102585.16;5034676;28;20033;-69
2021/10/07 05:15:59;;;;;;;7.75;3.40;;;;;;;6.74;53.65;102586.00;5032026;28;20041;-71
2021/10/07 05:18:24;;;;;;;6.43;2.45;;;;;;;6.87;54.02;102582.59;5032111;28;20057;-71
2021/10/07 05:20:51;;;;;;;7.18;2.88;;;;;;;6.84;53.37;102589.50;5032765;28;20123;-70
2021/10/07 05:23:17;;;;;;;6.80;2.90;;;;;;;6.82;53.65;102586.91;5034826;28;20059;-70
2021/10/07 05:25:43;;;;;;;12.25;3.65;;;;;;;7.00;53.78;102598.22;5039512;28;20742;-71
2021/10/07 05:28:08;;;;;;;7.20;2.55;;;;;;;7.12;53.86;102593.06;5043656;28;20033;-71
2021/10/07 05:30:34;;;;;;;7.70;3.35;;;;;;;7.24;54.22;102592.19;5035233;28;20055;-68
2021/10/07 05:33:00;;;;;;;5.05;3.17;;;;;;;7.38;53.62;102594.81;5047465;28;20037;-67
2021/10/07 05:35:26;;;;;;;6.22;3.45;;;;;;;7.34;53.27;102604.34;5034524;28;20114;-69
2021/10/07 05:37:51;;;;;;;7.05;3.53;;;;;;;7.44;52.90;102606.09;5033912;28;20082;-68
2021/10/07 05:40:17;;;;;;;7.55;3.03;;;;;;;7.37;53.40;102609.56;5029589;28;20117;-67
2021/10/07 05:42:42;;;;;;;6.82;3.30;;;;;;;7.48;53.46;102626.03;5032115;28;20554;-67
2021/10/07 05:45:10;;;;;;;7.43;3.72;;;;;;;7.52;53.62;102622.59;5029026;28;20068;-70
2021/10/07 05:47:39;;;;;;;6.75;3.13;;;;;;;7.57;53.73;102630.41;5050984;28;20509;-70
2021/10/07 05:50:07;;;;;;;6.68;3.60;;;;;;;7.56;53.58;102633.91;5033666;28;20049;-70
2021/10/07 05:52:32;;;;;;;5.45;2.60;;;;;;;7.55;53.26;102634.75;5035605;28;20045;-68
2021/10/07 05:54:58;;;;;;;7.38;3.30;;;;;;;7.47;52.90;102633.88;5031255;28;20061;-68
2021/10/07 05:57:24;;;;;;;8.13;2.75;;;;;;;7.52;53.63;102634.72;5047298;28;20135;-69
2021/10/07 05:59:51;;;;;;;4.10;2.38;;;;;;;7.67;53.70;102639.97;5047167;28;20046;-72
2021/10/07 06:02:17;;;;;;;5.30;3.38;;;;;;;7.56;53.37;102646.91;5037190;28;20035;-70
2021/10/07 06:04:42;;;;;;;5.45;2.58;;;;;;;7.60;53.58;102638.25;5035499;28;20128;-68
2021/10/07 06:07:08;;;;;;;6.07;2.63;;;;;;;7.80;53.27;102645.19;5029816;28;20195;-68
2021/10/07 06:09:33;;;;;;;7.18;3.92;;;;;;;7.89;53.35;102650.38;5040034;28;20139;-68
2021/10/07 06:11:59;;;;;;;6.35;3.08;;;;;;;7.92;53.34;102647.78;5039567;28;20052;-68
2021/10/07 06:14:25;;;;;;;6.18;3.03;;;;;;;7.87;53.55;102647.78;5031662;28;20037;-68
2021/10/07 06:16:54;;;;;;;5.50;2.65;;;;;;;7.98;53.72;102655.59;5036553;28;20136;-67
2021/10/07 06:19:23;;;;;;;9.18;3.80;;;;;;;8.04;53.44;102663.38;5031136;28;20351;-68
2021/10/07 06:21:52;;;;;;;6.72;3.70;;;;;;;8.12;53.28;102659.06;5038435;28;20051;-70
2021/10/07 06:24:19;;;;;;;7.22;3.47;;;;;;;8.25;53.47;102662.50;5028774;28;20609;-69
2021/10/07 06:26:45;;;;;;;8.25;3.40;;;;;;;8.39;53.66;102662.47;5036727;28;20048;-69
2021/10/07 06:29:11;;;;;;;8.30;4.22;;;;;;;8.44;53.05;102665.06;5028959;28;20043;-68
2021/10/07 06:31:38;;;;;;;8.07;3.75;;;;;;;8.46;53.59;102668.53;5030079;28;20152;-69
2021/10/07 06:34:04;;;;;;;9.52;5.00;;;;;;;8.49;53.19;102669.38;5047297;28;20167;-68
2021/10/07 06:36:30;;;;;;;10.15;4.85;;;;;;;8.52;53.21;102668.53;5029403;28;20555;-68
2021/10/07 06:38:55;;;;;;;8.43;4.53;;;;;;;8.58;53.58;102671.09;5030368;28;20132;-68
2021/10/07 06:41:22;;;;;;;10.73;5.13;;;;;;;8.55;53.22;102674.59;5043779;28;20065;-68
2021/10/07 06:43:48;;;;;;;7.28;4.28;;;;;;;8.66;53.43;102684.13;5031943;28;20435;-68
2021/10/07 06:46:13;;;;;;;11.45;4.32;;;;;;;8.70;53.28;102678.91;5045759;28;20052;-69
2021/10/07 06:48:39;;;;;;;11.05;4.93;;;;;;;8.67;53.25;102684.13;5027468;28;20052;-67
2021/10/07 06:51:09;;;;;;;12.60;5.07;;;;;;;8.76;53.20;102678.91;5045272;28;20086;-68
2021/10/07 06:53:35;;;;;;;9.02;3.78;;;;;;;8.89;53.48;102678.84;5032224;28;20095;-68
2021/10/07 06:56:01;;;;;;;12.02;5.80;;;;;;;8.91;53.24;102691.00;5028889;28;20037;-68
2021/10/07 06:58:26;;;;;;;11.65;4.25;;;;;;;8.93;53.43;102689.25;5035464;28;20110;-68
2021/10/07 07:00:52;;;;;;;9.50;5.00;;;;;;;8.96;53.31;102699.69;5029263;28;20419;-68
2021/10/07 07:03:17;;;;;;;12.32;4.82;;;;;;;8.97;53.33;102696.22;5029770;28;20117;-68
2021/10/07 07:05:43;;;;;;;12.43;6.28;;;;;;;9.01;53.04;102684.03;5032556;28;20449;-67
2021/10/07 07:08:08;;;;;;;10.70;4.90;;;;;;;9.08;53.29;102690.09;5033580;28;20405;-68
2021/10/07 07:10:33;;;;;;;11.15;4.93;;;;;;;9.14;53.32;102696.16;5047746;28;20091;-67
2021/10/07 07:13:04;;;;;;;9.02;5.22;;;;;;;9.24;53.70;102699.56;5028162;28;20767;-70
2021/10/07 07:15:30;;;;;;;9.60;4.85;;;;;;;9.44;53.65;102699.44;5029748;28;20041;-68
2021/10/07 07:17:55;;;;;;;24.40;9.60;;;;;;;9.57;53.32;102706.31;5027579;28;20044;-67
2021/10/07 07:20:21;;;;;;;12.52;5.63;;;;;;;9.65;53.19;102701.03;5026892;28;20033;-68
2021/10/07 07:22:46;;;;;;;13.52;6.18;;;;;;;9.85;52.95;102710.50;5028473;28;20532;-67
2021/10/07 07:25:11;;;;;;;13.30;7.32;;;;;;;10.06;53.19;102709.47;5036442;28;20032;-67
2021/10/07 07:27:37;;;;;;;15.82;7.15;;;;;;;9.97;52.93;102710.44;5022616;28;20139;-68
2021/10/07 07:30:05;;;;;;;14.48;6.95;;;;;;;10.17;52.84;102710.25;5026130;28;20045;-68
2021/10/07 07:32:30;;;;;;;15.43;7.22;;;;;;;10.35;52.92;102715.31;5028643;28;20048;-67
2021/10/07 07:34:56;;;;;;;16.23;8.07;;;;;;;10.42;52.24;102710.88;5028532;28;20049;-67
2021/10/07 07:37:21;;;;;;;16.90;7.80;;;;;;;10.61;52.95;102719.38;5030038;28;20025;-67
2021/10/07 07:39:47;;;;;;;19.70;8.90;;;;;;;10.72;52.36;102721.91;5030253;28;20041;-69
2021/10/07 07:42:12;;;;;;;18.52;9.65;;;;;;;10.72;52.36;102724.50;5028418;28;20098;-68
2021/10/07 07:44:39;;;;;;;20.30;9.25;;;;;;;10.71;52.44;102722.78;5042709;28;20588;-68
2021/10/07 07:47:05;;;;;;;17.45;8.93;;;;;;;10.90;52.15;102731.31;5029137;28;20148;-68
2021/10/07 07:49:30;;;;;;;21.92;9.60;;;;;;;10.95;52.04;102727.78;5027079;28;20143;-70
2021/10/07 07:51:56;;;;;;;21.15;9.50;;;;;;;11.01;51.58;102740.75;5034272;28;20040;-68
2021/10/07 07:54:21;;;;;;;17.20;9.30;;;;;;;10.94;51.53;102740.88;5033825;28;20036;-67
2021/10/07 07:56:47;;;;;;;20.63;9.88;;;;;;;10.99;51.60;102736.44;5023191;28;20041;-67
2021/10/07 07:59:12;;;;;;;18.67;10.02;;;;;;;10.98;51.76;102746.03;5027402;28;20037;-67
2021/10/07 08:01:38;;;;;;;20.30;9.73;;;;;;;11.12;52.16;102739.78;5027694;28;20088;-68
2021/10/07 08:04:05;;;;;;;23.20;10.52;;;;;;;11.12;51.25;102745.88;5030835;28;20270;-67
2021/10/07 08:06:35;;;;;;;20.27;10.77;;;;;;;11.22;51.55;102744.00;5019127;28;20446;-69
2021/10/07 08:09:04;;;;;;;19.55;9.88;;;;;;;11.23;51.42;102746.59;5026253;28;20111;-68
2021/10/07 08:11:30;;;;;;;23.77;12.05;;;;;;;11.32;51.73;102747.38;5040569;28;20045;-68
2021/10/07 08:13:58;;;;;;;21.15;11.60;;;;;;;11.20;51.21;102744.03;5035763;28;20033;-67
2021/10/07 08:16:25;;;;;;;24.90;12.02;;;;;;;11.19;51.48;102749.28;5029442;28;20099;-67
2021/10/07 08:18:51;;;;;;;22.05;11.60;;;;;;;11.36;50.86;102746.44;5032754;28;20040;-68
2021/10/07 08:21:16;;;;;;;23.35;12.45;;;;;;;11.30;51.31;102742.13;5019466;28;20037;-68
2021/10/07 08:23:42;;;;;;;24.25;12.10;;;;;;;11.56;51.21;102754.88;5029650;28;20486;-67
2021/10/07 08:26:07;;;;;;;24.95;12.50;;;;;;;11.61;50.78;102750.44;5030094;28;20044;-67
2021/10/07 08:28:33;;;;;;;20.50;12.25;;;;;;;11.69;50.31;102760.81;5031795;28;20115;-68
2021/10/07 08:30:58;;;;;;;25.63;12.88;;;;;;;11.66;49.78;102760.84;5033539;28;24085;-67
2021/10/07 08:33:24;;;;;;;25.65;11.48;;;;;;;11.77;49.88;102758.06;5031928;28;20041;-68
2021/10/07 08:35:50;;;;;;;28.52;12.88;;;;;;;11.82;49.41;102767.63;5031355;28;20049;-67
2021/10/07 08:38:18;;;;;;;21.33;12.52;;;;;;;11.77;49.69;102763.31;5031698;28;20120;-67
2021/10/07 08:40:44;;;;;;;23.92;12.60;;;;;;;11.51;50.08;102767.19;5033843;28;20042;-67
2021/10/07 08:43:10;;;;;;;22.98;11.35;;;;;;;11.51;50.72;102771.53;5032179;28;20122;-66
2021/10/07 08:45:36;;;;;;;22.25;11.48;;;;;;;11.75;50.20;102772.94;5031963;28;20546;-68
2021/10/07 08:48:01;;;;;;;22.88;11.38;;;;;;;11.74;49.79;102779.09;5033138;28;20409;-67
2021/10/07 08:50:27;;;;;;;23.85;11.05;;;;;;;11.66;49.24;102789.66;5019846;28;20139;-67
2021/10/07 08:52:53;;;;;;;23.38;11.38;;;;;;;11.77;49.47;102779.91;5033451;28;20116;-67
2021/10/07 08:55:19;;;;;;;21.70;11.35;;;;;;;11.60;50.16;102784.53;5030103;28;20048;-66
2021/10/07 08:57:45;;;;;;;23.40;10.73;;;;;;;11.41;50.32;102782.13;5033041;28;20463;-67
2021/10/07 09:00:13;;;;;;;28.17;12.23;;;;;;;11.64;49.88;102786.19;5030792;28;20064;-67
2021/10/07 09:02:40;;;;;;;23.30;11.07;;;;;;;11.71;49.76;102787.84;5034801;28;20490;-68
2021/10/07 09:05:10;;;;;;;22.52;10.57;;;;;;;11.87;49.76;102786.78;5039418;28;20508;-67
2021/10/07 09:07:52;;;;;;;25.55;11.25;;;;;;;11.88;49.12;102783.25;5032818;28;20045;-67
2021/10/07 09:10:18;;;;;;;23.38;11.27;;;;;;;12.06;49.37;102787.34;5032960;28;20056;-69
2021/10/07 09:13:06;;;;;;;29.10;12.40;;;;;;;12.14;49.23;102789.84;5028254;28;20101;-67
2021/10/07 09:15:32;;;;;;;23.90;11.68;;;;;;;12.26;48.78;102788.78;5029808;28;20045;-67
2021/10/07 09:18:06;;;;;;;23.05;12.23;;;;;;;12.08;48.15;102790.78;5026536;28;20029;-67
2021/10/07 09:20:38;;;;;;;24.77;10.52;;;;;;;12.16;48.71;102781.97;5030895;28;20087;-67
2021/10/07 09:23:07;;;;;;;22.95;11.48;;;;;;;12.28;48.60;102781.75;5028313;28;20028;-67
2021/10/07 09:25:52;;;;;;;23.92;11.15;;;;;;;12.33;48.38;102784.28;5025014;28;20053;-67
2021/10/07 09:28:18;;;;;;;23.00;11.73;;;;;;;11.93;48.03;102787.56;5044303;28;20041;-67
2021/10/07 09:30:43;;;;;;;19.83;9.70;;;;;;;12.16;47.97;102788.06;5027949;28;20056;-68
2021/10/07 09:33:09;;;;;;;23.42;11.00;;;;;;;12.46;47.70;102791.06;5024352;28;20601;-69
2021/10/07 09:35:37;;;;;;;21.92;12.02;;;;;;;12.41;47.55;102792.91;5044448;28;20173;-67
2021/10/07 09:38:05;;;;;;;26.13;11.30;;;;;;;12.69;46.23;102788.94;5029303;28;20498;-69
2021/10/07 09:40:31;;;;;;;22.85;10.85;;;;;;;12.74;46.25;102785.34;5031076;28;20045;-69
2021/10/07 09:43:00;;;;;;;20.83;11.25;;;;;;;13.21;45.70;102796.69;5030808;28;20448;-67
2021/10/07 09:45:28;;;;;;;22.63;10.38;;;;;;;13.38;44.46;102791.91;5028353;28;20143;-67
2021/10/07 09:48:02;;;;;;;24.55;12.13;;;;;;;13.20;44.71;102795.78;5032478;28;20037;-67
2021/10/07 09:50:38;;;;;;;21.08;10.57;;;;;;;13.15;44.42;102791.56;5029480;28;20370;-68
2021/10/07 09:53:12;;;;;;;22.00;11.48;;;;;;;13.44;44.68;102798.81;5033767;28;20037;-68
2021/10/07 09:55:55;;;;;;;20.50;10.68;;;;;;;13.83;44.92;102790.94;5044934;28;20533;-68
2021/10/07 09:58:24;;;;;;;22.65;11.68;;;;;;;14.76;41.97;102791.25;5030001;28;20036;-68
2021/10/07 10:00:52;;;;;;;19.92;10.73;;;;;;;15.26;42.13;102789.88;5044817;28;20045;-68
2021/10/07 10:03:19;;;;;;;20.52;10.63;;;;;;;15.54;40.88;102780.25;5013670;28;20457;-68
2021/10/07 10:05:46;;;;;;;20.63;11.15;;;;;;;16.33;39.58;102785.63;5029414;28;20041;-68
2021/10/07 10:08:14;;;;;;;22.63;10.48;;;;;;;16.87;38.57;102786.41;5046566;28;20450;-68
2021/10/07 10:10:42;;;;;;;18.75;10.57;;;;;;;16.70;36.94;102789.63;5029922;28;20183;-68
2021/10/07 10:13:08;;;;;;;22.63;12.40;;;;;;;16.09;37.94;102792.63;5034960;28;20655;-68
2021/10/07 10:15:37;;;;;;;21.05;11.05;;;;;;;16.20;38.13;102786.06;5028837;28;20518;-68
2021/10/07 10:18:07;;;;;;;18.17;10.38;;;;;;;16.16;39.53;102794.13;5038414;28;20072;-68
2021/10/07 10:20:37;;;;;;;19.08;10.05;;;;;;;15.59;40.43;102794.16;5043980;28;20418;-69
2021/10/07 10:23:11;;;;;;;21.33;9.73;;;;;;;16.07;39.75;102789.16;5029677;28;20429;-69
2021/10/07 10:25:50;;;;;;;17.30;10.55;;;;;;;16.49;38.16;102792.13;5038249;28;20083;-71
2021/10/07 10:28:16;;;;;;;18.83;10.57;;;;;;;16.18;39.51;102787.03;5033328;28;20041;-68
2021/10/07 10:30:46;;;;;;;21.13;10.75;;;;;;;16.16;39.60;102794.13;5030295;28;20041;-67
2021/10/07 10:33:33;;;;;;;18.42;10.80;;;;;;;16.03;39.41;102788.41;5029353;28;20156;-68
2021/10/07 10:35:58;;;;;;;19.17;10.65;;;;;;;15.93;39.78;102790.44;5029062;28;20474;-68
2021/10/07 10:38:27;;;;;;;15.32;9.07;;;;;;;16.10;40.19;102794.34;5028377;28;20029;-67
2021/10/07 10:40:52;;;;;;;14.73;8.80;;;;;;;16.29;39.37;102790.19;5031041;28;20124;-67
2021/10/07 10:43:18;;;;;;;17.05;10.20;;;;;;;16.19;39.39;102801.94;5035611;28;20206;-68
2021/10/07 10:46:01;;;;;;;17.23;10.45;;;;;;;16.21;39.03;102808.03;5035097;28;20517;-72
2021/10/07 10:48:44;;;;;;;22.55;10.68;;;;;;;16.00;38.77;102804.34;5044836;28;20037;-68
2021/10/07 10:51:16;;;;;;;17.25;9.13;;;;;;;16.10;39.08;102807.53;5028130;28;20041;-68
2021/10/07 10:54:03;;;;;;;15.10;9.18;;;;;;;14.91;41.43;102818.06;5034062;28;20053;-68
2021/10/07 10:56:54;;;;;;;15.70;9.45;;;;;;;15.32;41.41;102822.19;5030658;28;20036;-69
2021/10/07 10:59:21;;;;;;;16.98;8.63;;;;;;;15.68;39.31;102818.50;5033236;28;20037;-69
2021/10/07 11:02:15;;;;;;;19.55;9.18;;;;;;;15.16;40.99;102827.00;5030714;28;20029;-68
2021/10/07 11:04:49;;;;;;;14.98;8.68;;;;;;;14.33;43.12;102828.31;5030781;28;20045;-69
2021/10/07 11:07:18;;;;;;;16.33;9.00;;;;;;;15.02;42.30;102829.16;5029852;28;20044;-68
2021/10/07 11:10:05;;;;;;;17.25;9.05;;;;;;;15.03;41.95;102838.78;5031959;28;20045;-69
2021/10/07 11:12:41;;;;;;;18.80;9.82;;;;;;;15.14;41.06;102835.84;5027190;28;20052;-68
2021/10/07 11:15:08;;;;;;;17.30;9.30;;;;;;;15.53;40.72;102840.91;5027079;28;20391;-68
2021/10/07 11:17:33;;;;;;;15.23;8.18;;;;;;;15.44;41.55;102842.06;5028044;28;20555;-68
2021/10/07 11:19:59;;;;;;;16.63;9.50;;;;;;;15.35;40.71;102826.53;5027772;28;20043;-68
2021/10/07 11:22:26;;;;;;;15.93;9.27;;;;;;;15.38;41.32;102837.81;5034263;28;20056;-68
2021/10/07 11:24:55;;;;;;;17.75;10.23;;;;;;;15.42;41.01;102835.97;5034003;28;20091;-68
2021/10/07 11:27:41;;;;;;;15.63;9.35;;;;;;;15.37;42.39;102835.22;5030087;28;20029;-68
2021/10/07 11:30:14;;;;;;;17.38;9.45;;;;;;;15.65;40.95;102834.41;5027050;28;20041;-69
2021/10/07 11:32:40;;;;;;;18.10;10.50;;;;;;;15.05;41.19;102839.59;5031095;28;20554;-68